Time;durP1;ratioP1;P1;durP2;ratioP2;P2;SDS_P1;SDS_P2;PMS_P1;PMS_P2;Temp;Humidity;BMP_temperature;BMP_pressure;BME280_temperature;BME280_humidity;BME280_pressure;Samples;Min_cycle;Max_cycle;Signal;HPM_P1;HPM_P2
2023/03/13 00:01:15;;;;;;;0.80;0.80;;;;;;;-141.59;100.00;61776.25;4823930;29;20225;-81
2023/03/13 00:03:42;;;;;;;0.80;0.80;;;;;;;-141.59;100.00;61776.25;4823501;29;20218;-82
2023/03/13 00:06:10;;;;;;;3.37;0.80;;;;;;;-141.59;100.00;61776.25;4822163;29;20226;-82
2023/03/13 00:08:37;;;;;;;1.30;0.87;;;;;;;-141.59;100.00;61776.25;4822094;29;20214;-81
2023/03/13 00:11:06;;;;;;;2.30;1.00;;;;;;;-141.59;100.00;61776.25;4821236;29;20242;-81
2023/03/13 00:13:34;;;;;;;0.87;0.83;;;;;;;-141.59;100.00;61776.25;4815276;29;20268;-82
2023/03/13 00:16:02;;;;;;;1.93;1.00;;;;;;;-141.59;100.00;61776.25;4814856;29;20238;-81
2023/03/13 00:18:30;;;;;;;0.70;0.70;;;;;;;-141.59;100.00;61776.25;4822274;29;20214;-81
2023/03/13 00:21:01;;;;;;;1.90;0.80;;;;;;;-141.59;100.00;61776.25;4821108;29;20308;-81
2023/03/13 00:23:29;;;;;;;3.70;0.77;;;;;;;-141.59;100.00;61776.25;4830661;29;20206;-82
2023/03/13 00:25:58;;;;;;;0.80;0.80;;;;;;;-141.59;100.00;61776.25;4818883;29;20237;-81
2023/03/13 00:28:25;;;;;;;3.10;0.90;;;;;;;-141.59;100.00;61776.25;4821415;29;20209;-82
2023/03/13 00:31:00;;;;;;;1.13;0.70;;;;;;;-141.59;100.00;61776.25;4823777;29;20216;-81
2023/03/13 00:33:28;;;;;;;1.97;0.90;;;;;;;-141.59;100.00;61776.25;4820994;29;20209;-81
2023/03/13 00:35:59;;;;;;;1.97;0.93;;;;;;;-141.59;100.00;61776.25;4834016;29;20247;-81
2023/03/13 00:38:28;;;;;;;2.13;0.90;;;;;;;-141.59;100.00;61776.25;4813986;29;20210;-81
2023/03/13 00:41:02;;;;;;;0.60;0.60;;;;;;;-141.59;100.00;61776.25;4823007;29;20237;-81
2023/03/13 00:43:30;;;;;;;1.13;1.03;;;;;;;-141.59;100.00;61776.25;4821684;29;20229;-81
2023/03/13 00:45:57;;;;;;;1.20;0.90;;;;;;;-141.59;100.00;61776.25;4819153;29;20233;-81
2023/03/13 00:48:27;;;;;;;0.80;0.80;;;;;;;-141.59;100.00;61776.25;4821726;29;20235;-82
2023/03/13 00:50:54;;;;;;;0.80;0.80;;;;;;;-141.59;100.00;61776.25;4821985;29;20249;-81
2023/03/13 00:53:24;;;;;;;0.97;0.83;;;;;;;-141.59;100.00;61776.25;4821684;29;20217;-82
2023/03/13 00:55:55;;;;;;;4.73;1.03;;;;;;;-141.59;100.00;61776.25;4817554;29;20214;-82
2023/03/13 00:58:24;;;;;;;2.23;0.83;;;;;;;-141.59;100.00;61776.25;4818208;29;20216;-81
2023/03/13 01:00:52;;;;;;;0.80;0.80;;;;;;;-141.59;100.00;61776.25;4817930;29;20212;-82
2023/03/13 01:03:20;;;;;;;1.07;0.90;;;;;;;-141.59;100.00;61776.25;4818314;29;20213;-81
2023/03/13 01:05:56;;;;;;;0.60;0.60;;;;;;;-141.59;100.00;61776.25;4820691;29;20241;-82
2023/03/13 01:08:28;;;;;;;2.07;0.90;;;;;;;-141.59;100.00;61776.25;4822318;29;20209;-81
2023/03/13 01:11:00;;;;;;;1.10;1.00;;;;;;;-141.59;100.00;61776.25;4817013;29;20308;-81
2023/03/13 01:13:27;;;;;;;2.33;0.93;;;;;;;-141.59;100.00;61776.25;4806506;29;20222;-82
2023/03/13 01:15:55;;;;;;;2.73;1.40;;;;;;;-141.59;100.00;61776.25;4824579;29;20278;-82
2023/03/13 01:18:22;;;;;;;1.93;1.00;;;;;;;-141.59;100.00;61776.25;4819135;29;20201;-82
2023/03/13 01:20:50;;;;;;;1.63;1.00;;;;;;;-141.59;100.00;61776.25;4818111;29;20209;-82
2023/03/13 01:23:18;;;;;;;2.33;1.17;;;;;;;-141.59;100.00;61776.25;4817611;29;20229;-82
2023/03/13 01:25:49;;;;;;;1.73;1.10;;;;;;;-141.59;100.00;61776.25;4815467;29;20310;-82
2023/03/13 01:28:16;;;;;;;2.07;1.13;;;;;;;-141.59;100.00;61776.25;4819662;29;20210;-82
2023/03/13 01:30:43;;;;;;;1.23;0.90;;;;;;;-141.59;100.00;61776.25;4819445;29;20308;-81
2023/03/13 01:33:10;;;;;;;2.13;1.20;;;;;;;-141.59;100.00;61776.25;4811383;29;20220;-81
2023/03/13 01:35:38;;;;;;;1.07;1.00;;;;;;;-141.59;100.00;61776.25;4821701;29;20244;-82
2023/03/13 01:38:05;;;;;;;1.23;1.00;;;;;;;-141.59;100.00;61776.25;4820094;29;20218;-82
2023/03/13 01:40:32;;;;;;;1.03;0.90;;;;;;;-141.59;100.00;61776.25;4812356;29;20221;-81
2023/03/13 01:43:00;;;;;;;1.20;0.80;;;;;;;-141.59;100.00;61776.25;4819306;29;20244;-82
2023/03/13 01:45:53;;;;;;;3.50;1.23;;;;;;;-141.59;100.00;61776.25;4814843;29;20317;-81
2023/03/13 01:48:27;;;;;;;1.23;0.80;;;;;;;-141.59;100.00;61776.25;4819016;29;20279;-82
2023/03/13 01:50:56;;;;;;;1.13;0.80;;;;;;;-141.59;100.00;61776.25;4820201;29;20210;-81
2023/03/13 01:53:28;;;;;;;1.07;0.80;;;;;;;-141.59;100.00;61776.25;4817810;29;20209;-82
2023/03/13 01:55:57;;;;;;;0.70;0.70;;;;;;;-141.59;100.00;61776.25;4822078;29;20210;-81
2023/03/13 01:58:29;;;;;;;3.97;0.80;;;;;;;-141.59;100.00;61776.25;4821683;29;20226;-82
2023/03/13 02:00:58;;;;;;;1.93;0.70;;;;;;;-141.59;100.00;61776.25;4838792;29;20296;-82
2023/03/13 02:03:26;;;;;;;2.07;0.70;;;;;;;-141.59;100.00;61776.25;4818654;29;20260;-82
2023/03/13 02:05:55;;;;;;;1.67;0.70;;;;;;;-141.59;100.00;61776.25;4830957;29;20229;-82
2023/03/13 02:08:25;;;;;;;0.77;0.70;;;;;;;-141.59;100.00;61776.25;4816901;29;20214;-82
2023/03/13 02:10:58;;;;;;;1.30;0.80;;;;;;;-141.59;100.00;61776.25;4820663;29;20203;-82
2023/03/13 02:13:29;;;;;;;1.70;0.70;;;;;;;-141.59;100.00;61776.25;4817783;29;20225;-81
2023/03/13 02:15:56;;;;;;;1.70;0.83;;;;;;;-141.59;100.00;61776.25;4817635;29;20221;-82
2023/03/13 02:18:24;;;;;;;2.40;0.80;;;;;;;-141.59;100.00;61776.25;4820372;29;20221;-82
2023/03/13 02:20:58;;;;;;;1.37;0.80;;;;;;;-141.59;100.00;61776.25;4816334;29;20214;-82
2023/03/13 02:23:35;;;;;;;0.70;0.70;;;;;;;-141.59;100.00;61776.25;4834462;29;20217;-81
2023/03/13 02:26:03;;;;;;;2.30;0.73;;;;;;;-141.59;100.00;61776.25;4820664;29;20251;-82
2023/03/13 02:28:37;;;;;;;1.20;0.80;;;;;;;-141.59;100.00;61776.25;4818968;29;20263;-82
2023/03/13 02:31:08;;;;;;;1.27;0.83;;;;;;;-141.59;100.00;61776.25;4819754;29;20228;-82
2023/03/13 02:33:40;;;;;;;0.87;0.63;;;;;;;-141.59;100.00;61776.25;4819022;29;20218;-82
2023/03/13 02:36:08;;;;;;;0.63;0.63;;;;;;;-141.59;100.00;61776.25;4819745;29;20209;-82
2023/03/13 02:38:42;;;;;;;0.70;0.70;;;;;;;-141.59;100.00;61776.25;4819122;29;20225;-81
2023/03/13 02:41:13;;;;;;;0.77;0.70;;;;;;;-141.59;100.00;61776.25;4821180;29;20218;-81
2023/03/13 02:43:41;;;;;;;0.97;0.80;;;;;;;-141.59;100.00;61776.25;4824038;29;20201;-81
2023/03/13 02:46:10;;;;;;;1.37;0.80;;;;;;;-141.59;100.00;61776.25;4825036;29;20229;-82
2023/03/13 02:48:43;;;;;;;1.27;0.70;;;;;;;-141.59;100.00;61776.25;4822751;29;20298;-82
2023/03/13 02:51:16;;;;;;;3.17;1.10;;;;;;;-141.59;100.00;61776.25;4820803;29;20209;-82
2023/03/13 02:53:44;;;;;;;1.23;0.90;;;;;;;-141.59;100.00;61776.25;4815160;29;20210;-81
2023/03/13 02:56:15;;;;;;;1.03;0.60;;;;;;;-141.59;100.00;61776.25;4813952;29;20257;-82
2023/03/13 02:58:44;;;;;;;0.60;0.60;;;;;;;-141.59;100.00;61776.25;4815565;29;20280;-82
2023/03/13 03:01:11;;;;;;;1.43;0.70;;;;;;;-141.59;100.00;61776.25;4823694;29;20201;-82
2023/03/13 03:03:41;;;;;;;0.70;0.70;;;;;;;-141.59;100.00;61776.25;4821042;29;20214;-82
2023/03/13 03:06:08;;;;;;;0.70;0.70;;;;;;;-141.59;100.00;61776.25;4821443;29;20244;-81
2023/03/13 03:08:40;;;;;;;0.70;0.70;;;;;;;-141.59;100.00;61776.25;4816362;29;20218;-82
2023/03/13 03:11:08;;;;;;;1.30;0.80;;;;;;;-141.59;100.00;61776.25;4819011;29;20259;-82
2023/03/13 03:13:36;;;;;;;0.70;0.70;;;;;;;-141.59;100.00;61776.25;4821597;29;20234;-81
2023/03/13 03:16:08;;;;;;;3.00;0.80;;;;;;;-141.59;100.00;61776.25;4823383;29;20213;-81
2023/03/13 03:18:35;;;;;;;0.70;0.70;;;;;;;-141.59;100.00;61776.25;4822518;29;20233;-82
2023/03/13 03:21:05;;;;;;;0.67;0.67;;;;;;;-141.59;100.00;61776.25;4818394;29;20209;-82
2023/03/13 03:23:37;;;;;;;0.70;0.70;;;;;;;-141.59;100.00;61776.25;4816603;29;20249;-81
2023/03/13 03:26:06;;;;;;;0.97;0.80;;;;;;;-141.59;100.00;61776.25;4819575;29;20240;-82
2023/03/13 03:28:34;;;;;;;0.83;0.80;;;;;;;-141.59;100.00;61776.25;4825506;29;20210;-82
2023/03/13 03:31:08;;;;;;;0.93;0.90;;;;;;;-141.59;100.00;61776.25;4815819;29;20230;-79
2023/03/13 03:33:36;;;;;;;0.70;0.70;;;;;;;-141.59;100.00;61776.25;4819316;29;20225;-82
2023/03/13 03:36:09;;;;;;;0.70;0.70;;;;;;;-141.59;100.00;61776.25;4818609;29;20213;-82
2023/03/13 03:38:38;;;;;;;0.70;0.70;;;;;;;-141.59;100.00;61776.25;4820675;29;20226;-82
2023/03/13 03:41:06;;;;;;;1.57;0.90;;;;;;;-141.59;100.00;61776.25;4819317;29;20218;-82
2023/03/13 03:43:35;;;;;;;1.70;0.60;;;;;;;-141.59;100.00;61776.25;4815384;29;20240;-81
2023/03/13 03:46:03;;;;;;;1.37;0.97;;;;;;;-141.59;100.00;61776.25;4820912;29;20314;-81
2023/03/13 03:48:33;;;;;;;1.00;0.90;;;;;;;-141.59;100.00;61776.25;4817318;29;20214;-81
2023/03/13 03:51:00;;;;;;;0.90;0.83;;;;;;;-141.59;100.00;61776.25;4819291;29;20264;-83
2023/03/13 03:53:28;;;;;;;0.70;0.70;;;;;;;-141.59;100.00;61776.25;4815129;29;20228;-81
2023/03/13 03:55:55;;;;;;;2.00;1.00;;;;;;;-141.59;100.00;61776.25;4819333;29;20293;-81
2023/03/13 03:58:25;;;;;;;2.90;1.20;;;;;;;-141.59;100.00;61776.25;4824468;29;20206;-81
2023/03/13 04:01:01;;;;;;;1.10;0.90;;;;;;;-141.59;100.00;61776.25;4825158;29;20201;-81
2023/03/13 04:03:33;;;;;;;2.00;0.80;;;;;;;-141.59;100.00;61776.25;4819326;29;20224;-80
2023/03/13 04:06:01;;;;;;;0.87;0.70;;;;;;;-141.59;100.00;61776.25;4819955;29;20229;-82
2023/03/13 04:08:29;;;;;;;1.13;0.87;;;;;;;-141.59;100.00;61776.25;4814578;29;20210;-82
2023/03/13 04:10:57;;;;;;;0.80;0.80;;;;;;;-141.59;100.00;61776.25;4821976;29;20209;-81
2023/03/13 04:13:25;;;;;;;0.70;0.70;;;;;;;-141.59;100.00;61776.25;4813683;29;20288;-82
2023/03/13 04:15:57;;;;;;;2.10;0.70;;;;;;;-141.59;100.00;61776.25;4817684;29;20293;-81
2023/03/13 04:18:24;;;;;;;1.00;0.90;;;;;;;-141.59;100.00;61776.25;4816393;29;20213;-82
2023/03/13 04:21:00;;;;;;;0.80;0.80;;;;;;;-141.59;100.00;61776.25;4815581;29;20294;-81
2023/03/13 04:23:28;;;;;;;0.97;0.80;;;;;;;-141.59;100.00;61776.25;4817692;29;20217;-82
2023/03/13 04:25:55;;;;;;;0.97;0.70;;;;;;;-141.59;100.00;61776.25;4819968;29;20226;-81
2023/03/13 04:28:22;;;;;;;1.93;0.80;;;;;;;-141.59;100.00;61776.25;4822681;29;20206;-81
2023/03/13 04:30:50;;;;;;;2.43;1.00;;;;;;;-141.59;100.00;61776.25;4814277;29;20206;-82
2023/03/13 04:33:29;;;;;;;1.10;0.87;;;;;;;-141.59;100.00;61776.25;4819650;29;20229;-82
2023/03/13 04:36:20;;;;;;;0.87;0.70;;;;;;;-141.59;100.00;61776.25;4817453;29;20210;-82
2023/03/13 04:38:58;;;;;;;1.10;0.90;;;;;;;-141.59;100.00;61776.25;4818683;29;20218;-82
2023/03/13 04:41:49;;;;;;;1.43;0.80;;;;;;;-141.59;100.00;61776.25;4819139;29;20217;-82
2023/03/13 04:44:25;;;;;;;0.60;0.60;;;;;;;-141.59;100.00;61776.25;4816294;29;20233;-82
2023/03/13 04:47:03;;;;;;;3.37;1.53;;;;;;;-141.59;100.00;61776.25;4820478;29;20229;-82
2023/03/13 04:49:49;;;;;;;1.00;0.90;;;;;;;-141.59;100.00;61776.25;4814327;29;20213;-83
2023/03/13 04:52:25;;;;;;;1.07;1.00;;;;;;;-141.59;100.00;61776.25;4818782;29;20212;-84
2023/03/13 04:55:09;;;;;;;2.20;1.67;;;;;;;-141.59;100.00;61776.25;4819667;29;20213;-82
2023/03/13 04:57:59;;;;;;;1.80;1.40;;;;;;;-141.59;100.00;61776.25;4826682;29;20217;-81
2023/03/13 05:00:44;;;;;;;1.37;1.00;;;;;;;-141.59;100.00;61776.25;4816734;29;20213;-81
2023/03/13 05:03:50;;;;;;;1.50;1.00;;;;;;;-141.59;100.00;61776.25;4780462;29;20259;-80
2023/03/13 05:06:41;;;;;;;3.63;1.47;;;;;;;-141.59;100.00;61776.25;4775778;29;20318;-81
2023/03/13 05:09:28;;;;;;;9.63;4.87;;;;;;;-141.59;100.00;61776.25;4815844;29;20236;-82
2023/03/13 05:12:34;;;;;;;1.93;1.40;;;;;;;-141.59;100.00;61776.25;4796701;29;20341;-82
2023/03/13 05:15:11;;;;;;;10.20;7.70;;;;;;;-141.59;100.00;61776.25;4795736;29;20231;-81
2023/03/13 05:18:02;;;;;;;2.03;1.70;;;;;;;-141.59;100.00;61776.25;4796304;29;20256;-81
2023/03/13 05:20:42;;;;;;;2.10;1.40;;;;;;;-141.59;100.00;61776.25;4817746;29;20237;-81
2023/03/13 05:23:20;;;;;;;1.37;1.27;;;;;;;-141.59;100.00;61776.25;4828700;29;20205;-81
2023/03/13 05:26:02;;;;;;;1.70;1.30;;;;;;;-141.59;100.00;61776.25;4808605;29;20226;-80
2023/03/13 05:28:36;;;;;;;3.07;1.80;;;;;;;-141.59;100.00;61776.25;4834745;29;20210;-81
2023/03/13 05:31:32;;;;;;;2.43;1.73;;;;;;;-141.59;100.00;61776.25;4819600;29;20222;-80
2023/03/13 05:34:19;;;;;;;4.20;2.67;;;;;;;-141.59;100.00;61776.25;4821592;29;20259;-80
2023/03/13 05:37:12;;;;;;;3.10;2.30;;;;;;;-141.59;100.00;61776.25;4832302;29;20237;-80
2023/03/13 05:40:00;;;;;;;3.97;2.00;;;;;;;-141.59;100.00;61776.25;4822644;29;20211;-81
2023/03/13 05:43:07;;;;;;;1.63;1.23;;;;;;;-141.59;100.00;61776.25;4786833;29;20219;-81
2023/03/13 05:46:05;;;;;;;2.87;1.40;;;;;;;-141.59;100.00;61776.25;4779249;30;20289;-80
2023/03/13 05:48:52;;;;;;;2.73;1.60;;;;;;;-141.59;100.00;61776.25;4826192;29;20307;-80
2023/03/13 05:51:39;;;;;;;1.33;1.20;;;;;;;-141.59;100.00;61776.25;4836779;29;20221;-80
2023/03/13 05:54:21;;;;;;;2.70;1.57;;;;;;;-141.59;100.00;61776.25;4833374;29;20214;-80
2023/03/13 05:57:20;;;;;;;2.13;1.40;;;;;;;-141.59;100.00;61776.25;4815073;29;20223;-81
2023/03/13 06:00:05;;;;;;;1.83;1.50;;;;;;;-141.59;100.00;61776.25;4807811;29;20210;-80
2023/03/13 06:02:50;;;;;;;2.43;1.63;;;;;;;-141.59;100.00;61776.25;4818337;29;20206;-80
2023/03/13 06:05:24;;;;;;;2.27;1.83;;;;;;;-141.59;100.00;61776.25;4810107;29;20300;-80
2023/03/13 06:07:52;;;;;;;2.47;2.27;;;;;;;-141.59;100.00;61776.25;4818487;29;20237;-80
2023/03/13 06:10:19;;;;;;;3.97;3.57;;;;;;;-141.59;100.00;61776.25;4826080;29;20304;-80
2023/03/13 06:12:53;;;;;;;4.97;3.90;;;;;;;-141.59;100.00;61776.25;4820100;29;20229;-80
2023/03/13 06:15:23;;;;;;;5.27;3.57;;;;;;;-141.59;100.00;61776.25;4818731;29;20208;-80
2023/03/13 06:18:01;;;;;;;3.27;1.90;;;;;;;-141.59;100.00;61776.25;4830650;29;20255;-78
2023/03/13 06:20:29;;;;;;;2.10;1.90;;;;;;;-141.59;100.00;61776.25;4822487;29;20313;-80
2023/03/13 06:22:56;;;;;;;3.40;2.00;;;;;;;-141.59;100.00;61776.25;4816198;29;20213;-80
2023/03/13 06:25:24;;;;;;;2.73;2.13;;;;;;;-141.59;100.00;61776.25;4825368;29;20200;-81
2023/03/13 06:27:51;;;;;;;2.60;2.20;;;;;;;-141.59;100.00;61776.25;4822605;29;20499;-80
2023/03/13 06:30:18;;;;;;;2.63;1.73;;;;;;;-141.59;100.00;61776.25;4819211;29;20209;-81
2023/03/13 06:32:49;;;;;;;2.20;1.97;;;;;;;-141.59;100.00;61776.25;4817562;29;20210;-81
2023/03/13 06:35:16;;;;;;;2.43;1.97;;;;;;;-141.59;100.00;61776.25;4821574;29;20303;-80
2023/03/13 06:37:43;;;;;;;3.80;2.97;;;;;;;-141.59;100.00;61776.25;4814820;29;20210;-81
2023/03/13 06:40:11;;;;;;;3.10;2.30;;;;;;;-141.59;100.00;61776.25;4822362;29;20221;-80
2023/03/13 06:42:39;;;;;;;5.30;4.57;;;;;;;-141.59;100.00;61776.25;4822700;29;20228;-81
2023/03/13 06:45:08;;;;;;;5.07;3.87;;;;;;;-141.59;100.00;61776.25;4822664;29;20213;-81
2023/03/13 06:47:35;;;;;;;6.63;4.43;;;;;;;-141.59;100.00;61776.25;4818180;29;20237;-81
2023/03/13 06:50:04;;;;;;;5.63;3.57;;;;;;;-141.59;100.00;61776.25;4819507;29;20230;-81
2023/03/13 06:52:31;;;;;;;8.83;4.30;;;;;;;-141.59;100.00;61776.25;4820409;29;20277;-82
2023/03/13 06:54:59;;;;;;;8.13;4.63;;;;;;;-141.59;100.00;61776.25;4825044;29;20213;-81
2023/03/13 06:57:27;;;;;;;5.47;3.77;;;;;;;-141.59;100.00;61776.25;4823226;29;20259;-81
2023/03/13 06:59:54;;;;;;;6.53;5.30;;;;;;;-141.59;100.00;61776.25;4821092;29;20225;-81
2023/03/13 07:02:21;;;;;;;6.73;4.83;;;;;;;-141.59;100.00;61776.25;4812769;29;20206;-81
2023/03/13 07:04:48;;;;;;;6.60;4.07;;;;;;;-141.59;100.00;61776.25;4814176;29;20246;-81
2023/03/13 07:07:17;;;;;;;5.63;3.80;;;;;;;-141.59;100.00;61776.25;4819327;29;20309;-80
2023/03/13 07:09:44;;;;;;;6.33;4.47;;;;;;;-141.59;100.00;61776.25;4819790;29;20213;-81
2023/03/13 07:12:11;;;;;;;5.47;3.50;;;;;;;-141.59;100.00;61776.25;4815112;29;20217;-81
2023/03/13 07:14:39;;;;;;;6.43;3.77;;;;;;;-141.59;100.00;61776.25;4817833;29;20290;-81
2023/03/13 07:17:06;;;;;;;4.53;3.83;;;;;;;-141.59;100.00;61776.25;4818151;29;20236;-81
2023/03/13 07:19:33;;;;;;;3.17;2.70;;;;;;;-141.59;100.00;61776.25;4818457;29;20241;-81
2023/03/13 07:22:01;;;;;;;4.00;2.70;;;;;;;-141.59;100.00;61776.25;4817804;29;20355;-81
2023/03/13 07:24:30;;;;;;;3.60;2.50;;;;;;;-141.59;100.00;61776.25;4812791;29;20221;-82
2023/03/13 07:26:57;;;;;;;3.40;2.20;;;;;;;-141.59;100.00;61776.25;4815710;29;20230;-81
2023/03/13 07:29:24;;;;;;;6.63;2.67;;;;;;;-141.59;100.00;61776.25;4818346;29;20217;-82
2023/03/13 07:31:51;;;;;;;3.57;2.53;;;;;;;-141.59;100.00;61776.25;4814131;29;20237;-81
2023/03/13 07:34:19;;;;;;;5.87;2.80;;;;;;;-141.59;100.00;61776.25;4817108;29;20222;-81
2023/03/13 07:36:46;;;;;;;4.63;2.90;;;;;;;-141.59;100.00;61776.25;4821000;29;20233;-83
2023/03/13 07:39:13;;;;;;;5.57;3.67;;;;;;;-141.59;100.00;61776.25;4820698;29;20238;-83
2023/03/13 07:41:42;;;;;;;4.40;3.17;;;;;;;-141.59;100.00;61776.25;4817729;29;20298;-83
2023/03/13 07:44:09;;;;;;;6.73;3.43;;;;;;;-141.59;100.00;61776.25;4815298;29;20318;-83
2023/03/13 07:46:36;;;;;;;7.33;2.67;;;;;;;-141.59;100.00;61776.25;4827830;29;20233;-83
2023/03/13 07:49:03;;;;;;;5.90;3.00;;;;;;;-141.59;100.00;61776.25;4818825;29;20221;-84
2023/03/13 07:51:30;;;;;;;4.13;2.63;;;;;;;-141.59;100.00;61776.25;4817594;29;20213;-84
2023/03/13 07:53:57;;;;;;;4.87;2.20;;;;;;;-141.59;100.00;61776.25;4821931;29;20214;-83
2023/03/13 07:56:25;;;;;;;2.43;1.77;;;;;;;-141.59;100.00;61776.25;4817661;29;20304;-84
2023/03/13 07:58:53;;;;;;;9.77;2.27;;;;;;;-141.59;100.00;61776.25;4822488;29;20239;-84
2023/03/13 08:01:22;;;;;;;2.40;1.53;;;;;;;-141.59;100.00;61776.25;4819319;29;20214;-83
2023/03/13 08:03:50;;;;;;;2.67;1.73;;;;;;;-141.59;100.00;61776.25;4817010;29;20300;-83
2023/03/13 08:06:20;;;;;;;4.47;1.80;;;;;;;-141.59;100.00;61776.25;4820168;29;20213;-84
2023/03/13 08:08:47;;;;;;;3.40;2.30;;;;;;;-141.59;100.00;61776.25;4829086;29;20312;-84
2023/03/13 08:11:16;;;;;;;6.63;3.80;;;;;;;-141.59;100.00;61776.25;4822507;29;20217;-84
2023/03/13 08:13:44;;;;;;;2.40;1.90;;;;;;;-141.59;100.00;61776.25;4824298;29;20253;-84
2023/03/13 08:16:14;;;;;;;6.30;2.53;;;;;;;-141.59;100.00;61776.25;4819542;29;20228;-83
2023/03/13 08:18:43;;;;;;;3.47;1.90;;;;;;;-141.59;100.00;61776.25;4816758;29;20218;-84
2023/03/13 08:21:13;;;;;;;3.80;2.00;;;;;;;-141.59;100.00;61776.25;4819217;29;20233;-83
2023/03/13 08:23:41;;;;;;;3.30;1.90;;;;;;;-141.59;100.00;61776.25;4821035;29;20304;-83
2023/03/13 08:26:11;;;;;;;4.70;2.30;;;;;;;-141.59;100.00;61776.25;4820041;29;20202;-83
2023/03/13 08:28:39;;;;;;;3.50;2.40;;;;;;;-141.59;100.00;61776.25;4821163;29;20348;-84
2023/03/13 08:31:11;;;;;;;5.20;2.13;;;;;;;-141.59;100.00;61776.25;4818943;29;20222;-84
2023/03/13 08:33:41;;;;;;;6.53;2.10;;;;;;;-141.59;100.00;61776.25;4818580;29;20241;-83
2023/03/13 08:36:12;;;;;;;3.37;1.90;;;;;;;-141.59;100.00;61776.25;4816086;29;20210;-83
2023/03/13 08:38:46;;;;;;;3.33;1.97;;;;;;;-141.59;100.00;61776.25;4821505;29;20214;-84
2023/03/13 08:41:15;;;;;;;6.10;2.23;;;;;;;-141.59;100.00;61776.25;4813868;29;20235;-83
2023/03/13 08:43:42;;;;;;;2.60;2.07;;;;;;;-141.59;100.00;61776.25;4825058;29;20288;-84
2023/03/13 08:46:09;;;;;;;2.80;2.10;;;;;;;-141.59;100.00;61776.25;4814117;29;20213;-84
2023/03/13 08:48:36;;;;;;;5.50;2.30;;;;;;;-141.59;100.00;61776.25;4828719;29;20290;-84
2023/03/13 08:51:07;;;;;;;9.27;6.77;;;;;;;-141.59;100.00;61776.25;4816634;29;20243;-85
2023/03/13 08:53:36;;;;;;;5.27;4.07;;;;;;;-141.59;100.00;61776.25;4822055;29;20209;-83
2023/03/13 08:56:03;;;;;;;3.53;2.90;;;;;;;-141.59;100.00;61776.25;4823312;29;20216;-83
2023/03/13 08:58:31;;;;;;;6.77;3.10;;;;;;;-141.59;100.00;61776.25;4825192;29;20209;-83
2023/03/13 09:01:02;;;;;;;5.90;2.93;;;;;;;-141.59;100.00;61776.25;4817036;29;20217;-83
2023/03/13 09:03:29;;;;;;;4.50;2.43;;;;;;;-141.59;100.00;61776.25;4822503;29;20231;-84
2023/03/13 09:05:57;;;;;;;3.67;2.40;;;;;;;-141.59;100.00;61776.25;4812832;29;20262;-83
2023/03/13 09:08:26;;;;;;;5.30;2.07;;;;;;;-141.59;100.00;61776.25;4819457;29;20245;-81
2023/03/13 09:10:57;;;;;;;2.93;1.70;;;;;;;-141.59;100.00;61776.25;4822040;29;20260;-81
2023/03/13 09:13:25;;;;;;;2.63;1.40;;;;;;;-141.59;100.00;61776.25;4816244;29;20226;-82
2023/03/13 09:15:56;;;;;;;3.97;1.70;;;;;;;-141.59;100.00;61776.25;4821500;29;20243;-82
2023/03/13 09:18:23;;;;;;;3.23;2.10;;;;;;;-141.59;100.00;61776.25;4813805;29;20222;-81
2023/03/13 09:20:51;;;;;;;4.90;2.93;;;;;;;-141.59;100.00;61776.25;4821924;29;20233;-81
2023/03/13 09:23:18;;;;;;;4.20;2.10;;;;;;;-141.59;100.00;61776.25;4820812;29;20208;-81
2023/03/13 09:25:48;;;;;;;2.23;1.90;;;;;;;-141.59;100.00;61776.25;4821865;29;20205;-81
2023/03/13 09:28:15;;;;;;;1.70;1.53;;;;;;;-141.59;100.00;61776.25;4820947;29;20233;-81
2023/03/13 09:30:42;;;;;;;3.37;1.70;;;;;;;-141.59;100.00;61776.25;4818230;29;20306;-81
2023/03/13 09:33:10;;;;;;;1.90;1.50;;;;;;;-141.59;100.00;61776.25;4829252;29;20241;-82
2023/03/13 09:35:39;;;;;;;3.23;1.60;;;;;;;-141.59;100.00;61776.25;4819182;29;20225;-82
2023/03/13 09:38:06;;;;;;;1.70;1.50;;;;;;;-141.59;100.00;61776.25;4819598;29;20232;-82
2023/03/13 09:40:40;;;;;;;2.93;1.33;;;;;;;-141.59;100.00;61776.25;4820940;29;20225;-81
2023/03/13 09:43:25;;;;;;;1.63;1.40;;;;;;;-141.59;100.00;61776.25;4823513;29;20213;-81
2023/03/13 09:45:58;;;;;;;1.87;1.60;;;;;;;-141.59;100.00;61776.25;4820133;29;20251;-81
2023/03/13 09:48:31;;;;;;;2.90;2.10;;;;;;;-141.59;100.00;61776.25;4816979;29;20233;-82
2023/03/13 09:51:04;;;;;;;4.83;1.87;;;;;;;-141.59;100.00;61776.25;4824142;29;20282;-82
2023/03/13 09:53:42;;;;;;;3.43;1.40;;;;;;;-141.59;100.00;61776.25;4836110;29;20224;-82
2023/03/13 09:56:16;;;;;;;1.30;1.00;;;;;;;-141.59;100.00;61776.25;4812509;29;20278;-82
2023/03/13 09:58:51;;;;;;;1.80;1.20;;;;;;;-141.59;100.00;61776.25;4823053;29;20207;-82
2023/03/13 10:01:24;;;;;;;2.90;1.70;;;;;;;-141.59;100.00;61776.25;4823041;29;20234;-82
2023/03/13 10:04:00;;;;;;;2.10;1.77;;;;;;;-141.59;100.00;61776.25;4821447;29;20258;-82
2023/03/13 10:06:31;;;;;;;4.47;1.73;;;;;;;-141.59;100.00;61776.25;4831890;29;20495;-82
2023/03/13 10:09:00;;;;;;;2.43;1.60;;;;;;;-141.59;100.00;61776.25;4825227;29;20230;-82
2023/03/13 10:11:35;;;;;;;3.37;1.80;;;;;;;-141.59;100.00;61776.25;4824590;29;20335;-82
2023/03/13 10:14:10;;;;;;;2.27;1.70;;;;;;;-141.59;100.00;61776.25;4837111;29;20228;-82
2023/03/13 10:16:44;;;;;;;8.37;5.27;;;;;;;-141.59;100.00;61776.25;4817468;29;20210;-83
2023/03/13 10:19:15;;;;;;;3.17;1.60;;;;;;;-141.59;100.00;61776.25;4823271;29;20321;-81
2023/03/13 10:21:47;;;;;;;1.70;1.50;;;;;;;-141.59;100.00;61776.25;4820767;29;20216;-81
2023/03/13 10:24:18;;;;;;;6.17;2.40;;;;;;;-141.59;100.00;61776.25;4819072;29;20220;-82
2023/03/13 10:26:45;;;;;;;5.33;1.73;;;;;;;-141.59;100.00;61776.25;4817627;29;20243;-81
2023/03/13 10:29:32;;;;;;;4.23;1.87;;;;;;;-141.59;100.00;61776.25;4822060;29;20241;-82
2023/03/13 10:32:01;;;;;;;2.27;1.20;;;;;;;-141.59;100.00;61776.25;4825623;29;20220;-81
2023/03/13 10:34:30;;;;;;;4.23;2.80;;;;;;;-141.59;100.00;61776.25;4822464;29;20284;-82
2023/03/13 10:36:59;;;;;;;3.57;2.23;;;;;;;-141.59;100.00;61776.25;4818510;29;20252;-81
2023/03/13 10:39:29;;;;;;;1.67;1.27;;;;;;;-141.59;100.00;61776.25;4821249;29;20209;-84
2023/03/13 10:42:00;;;;;;;2.23;1.60;;;;;;;-141.59;100.00;61776.25;4820829;29;20312;-84
2023/03/13 10:44:33;;;;;;;1.37;1.27;;;;;;;-141.59;100.00;61776.25;4820342;29;20213;-84
2023/03/13 10:47:03;;;;;;;1.73;1.43;;;;;;;-141.59;100.00;61776.25;4823917;29;20277;-83
2023/03/13 10:49:33;;;;;;;2.73;1.70;;;;;;;-141.59;100.00;61776.25;4820516;29;20317;-83
2023/03/13 10:52:01;;;;;;;5.10;1.43;;;;;;;-141.59;100.00;61776.25;4818889;29;20215;-84
2023/03/13 10:54:31;;;;;;;1.67;1.50;;;;;;;-141.59;100.00;61776.25;4815700;29;20214;-84
2023/03/13 10:57:27;;;;;;;5.07;1.70;;;;;;;-141.59;100.00;61776.25;4813925;29;20305;-84
2023/03/13 10:59:59;;;;;;;2.57;1.37;;;;;;;-141.59;100.00;61776.25;4814476;29;20242;-81
2023/03/13 11:02:34;;;;;;;2.43;1.60;;;;;;;-141.59;100.00;61776.25;4816792;29;20220;-84
2023/03/13 11:05:01;;;;;;;1.70;1.40;;;;;;;-141.59;100.00;61776.25;4818395;29;20217;-82
2023/03/13 11:07:32;;;;;;;3.50;1.87;;;;;;;-141.59;100.00;61776.25;4814005;29;20214;-82
2023/03/13 11:10:02;;;;;;;3.27;1.70;;;;;;;-141.59;100.00;61776.25;4816689;29;20301;-83
2023/03/13 11:12:34;;;;;;;26.43;12.77;;;;;;;-141.59;100.00;61776.25;4817159;29;20300;-82
2023/03/13 11:15:13;;;;;;;25.53;22.83;;;;;;;-141.59;100.00;61776.25;4817795;29;20283;-83
2023/03/13 11:17:41;;;;;;;14.33;8.73;;;;;;;-141.59;100.00;61776.25;4818594;29;20305;-83
2023/03/13 11:20:20;;;;;;;4.10;1.30;;;;;;;-141.59;100.00;61776.25;4813406;29;20242;-83
2023/03/13 11:22:56;;;;;;;3.23;1.50;;;;;;;-141.59;100.00;61776.25;4836267;29;20408;-83
2023/03/13 11:25:30;;;;;;;2.60;1.17;;;;;;;-141.59;100.00;61776.25;4815536;29;20209;-83
2023/03/13 11:28:28;;;;;;;1.97;1.20;;;;;;;-141.59;100.00;61776.25;4815915;29;20290;-83
2023/03/13 11:31:10;;;;;;;2.50;1.30;;;;;;;-141.59;100.00;61776.25;4809597;29;20222;-83